Time;durP1;ratioP1;P1;durP2;ratioP2;P2;SDS_P1;SDS_P2;PMS_P1;PMS_P2;Temp;Humidity;BMP_temperature;BMP_pressure;BME280_temperature;BME280_humidity;BME280_pressure;Samples;Min_cycle;Max_cycle;Signal;HPM_P1;HPM_P2
2021/08/30 00:01:28;;;;;;;;;;;;;;;18.57;87.42;98926.78;5032333;28;892;-62
2021/08/30 00:03:54;;;;;;;;;;;;;;;18.56;87.40;98918.88;5032520;28;1885;-62
2021/08/30 00:06:21;;;;;;;;;;;;;;;18.50;87.88;98926.41;5032350;28;895;-62
2021/08/30 00:08:47;;;;;;;;;;;;;;;18.47;87.99;98938.53;5032381;28;834;-63
2021/08/30 00:11:17;;;;;;;;;;;;;;;18.52;87.89;98933.06;5032745;28;806;-61
2021/08/30 00:13:44;;;;;;;;;;;;;;;18.61;87.72;98943.41;5032073;28;834;-62
2021/08/30 00:16:11;;;;;;;;;;;;;;;18.70;87.00;98939.75;5031630;28;1338;-62
2021/08/30 00:18:39;;;;;;;;;;;;;;;18.72;87.10;98942.84;5031947;28;806;-61
2021/08/30 00:21:05;;;;;;;;;;;;;;;18.75;86.90;98947.47;5030598;28;1283;-62
2021/08/30 00:23:32;;;;;;;;;;;;;;;18.76;87.03;98944.22;5031704;28;1977;-62
2021/08/30 00:26:00;;;;;;;;;;;;;;;18.80;86.97;98960.88;5031813;28;902;-62
2021/08/30 00:28:26;;;;;;;;;;;;;;;18.82;86.90;98954.75;5031190;28;886;-61
2021/08/30 00:30:53;;;;;;;;;;;;;;;18.80;86.86;98941.28;5031781;28;845;-63
2021/08/30 00:33:20;;;;;;;;;;;;;;;18.82;86.41;98940.75;5031740;28;857;-62
2021/08/30 00:35:47;;;;;;;;;;;;;;;18.83;86.60;98942.31;5031697;28;842;-61
2021/08/30 00:38:14;;;;;;;;;;;;;;;18.80;86.89;98941.28;5031692;28;1024;-61
2021/08/30 00:40:43;;;;;;;;;;;;;;;18.81;86.75;98959.59;5031714;28;899;-61
2021/08/30 00:43:10;;;;;;;;;;;;;;;18.84;86.50;98969.84;5031646;28;810;-60
2021/08/30 00:45:37;;;;;;;;;;;;;;;18.89;86.17;98983.16;5031409;28;1951;-61
2021/08/30 00:48:04;;;;;;;;;;;;;;;18.93;86.09;99025.75;5031542;28;849;-61
2021/08/30 00:50:30;;;;;;;;;;;;;;;18.95;86.32;99017.66;5031542;28;823;-60
2021/08/30 00:52:57;;;;;;;;;;;;;;;18.96;85.83;99018.41;5031459;28;819;-61
2021/08/30 00:55:25;;;;;;;;;;;;;;;18.95;85.91;98989.66;5031384;28;878;-60
2021/08/30 00:57:51;;;;;;;;;;;;;;;18.85;85.71;98953.81;5031492;28;871;-59
2021/08/30 01:00:18;;;;;;;;;;;;;;;18.91;85.49;98951.91;5031481;28;846;-60
2021/08/30 01:02:45;;;;;;;;;;;;;;;18.88;85.28;98956.44;5031442;28;870;-60
2021/08/30 01:05:15;;;;;;;;;;;;;;;18.85;85.39;98951.78;5031355;28;1886;-60
2021/08/30 01:07:42;;;;;;;;;;;;;;;18.83;85.50;98953.53;5031312;28;843;-59
2021/08/30 01:10:13;;;;;;;;;;;;;;;18.81;85.92;98954.00;5031427;28;823;-59
2021/08/30 01:12:45;;;;;;;;;;;;;;;18.78;85.81;98946.56;5031320;28;886;-59
2021/08/30 01:15:20;;;;;;;;;;;;;;;18.76;85.91;98943.44;5031372;28;998;-58
2021/08/30 01:17:47;;;;;;;;;;;;;;;18.71;85.71;98939.28;5031030;28;1209;-59
2021/08/30 01:20:20;;;;;;;;;;;;;;;18.68;85.79;98931.06;5031343;28;827;-59
2021/08/30 01:22:48;;;;;;;;;;;;;;;18.66;85.64;98939.16;5031217;28;898;-58
2021/08/30 01:25:16;;;;;;;;;;;;;;;18.67;85.40;98946.31;5031270;28;1918;-58
2021/08/30 01:27:44;;;;;;;;;;;;;;;18.64;85.32;98950.84;5031202;28;818;-58
2021/08/30 01:30:17;;;;;;;;;;;;;;;18.61;85.20;98943.41;5031189;28;874;-58
2021/08/30 01:32:49;;;;;;;;;;;;;;;18.59;85.13;98942.34;5031156;28;831;-58
2021/08/30 01:35:17;;;;;;;;;;;;;;;18.60;84.83;98947.44;5031428;28;901;-58
2021/08/30 01:37:45;;;;;;;;;;;;;;;18.66;84.48;98950.38;5031282;28;803;-58
2021/08/30 01:40:14;;;;;;;;;;;;;;;18.70;84.38;98951.72;5032263;28;897;-58
2021/08/30 01:42:43;;;;;;;;;;;;;;;18.73;84.33;98955.59;5034755;28;818;-58
2021/08/30 01:45:11;;;;;;;;;;;;;;;18.72;83.97;98952.03;5034736;28;1948;-58
2021/08/30 01:47:39;;;;;;;;;;;;;;;18.76;84.29;98957.44;5034730;28;809;-58
2021/08/30 01:50:07;;;;;;;;;;;;;;;18.85;83.57;98962.22;5034604;28;838;-58
2021/08/30 01:52:35;;;;;;;;;;;;;;;18.92;83.26;98953.44;5034569;28;869;-58
2021/08/30 01:55:17;;;;;;;;;;;;;;;18.93;83.18;98961.38;5034456;28;818;-59
2021/08/30 02:00:43;;;;;;;;;;;;;;;18.95;83.04;98961.66;5034464;28;684;-59
2021/08/30 02:03:16;;;;;;;;;;;;;;;18.96;83.17;98946.38;5034401;28;818;-59
2021/08/30 02:05:49;;;;;;;;;;;;;;;18.93;83.22;98960.59;5034398;28;1886;-59
2021/08/30 02:08:16;;;;;;;;;;;;;;;18.89;83.25;98969.16;5034300;28;814;-59
2021/08/30 02:10:50;;;;;;;;;;;;;;;18.87;83.50;98960.47;5034212;28;834;-59
2021/08/30 02:13:17;;;;;;;;;;;;;;;18.85;83.47;98968.59;5034158;28;826;-60
2021/08/30 02:15:44;;;;;;;;;;;;;;;18.88;83.62;98980.84;5034342;28;902;-60
2021/08/30 02:18:19;;;;;;;;;;;;;;;18.88;83.67;99000.44;5034422;28;815;-59
2021/08/30 02:20:52;;;;;;;;;;;;;;;18.84;83.86;99005.44;5034195;28;878;-59
2021/08/30 02:23:23;;;;;;;;;;;;;;;18.84;84.19;99006.25;5034148;28;862;-59
2021/08/30 02:25:50;;;;;;;;;;;;;;;18.83;84.18;98996.28;5033830;28;2013;-60
2021/08/30 02:28:19;;;;;;;;;;;;;;;18.83;83.77;98999.09;5034146;28;893;-60
2021/08/30 02:30:46;;;;;;;;;;;;;;;18.86;83.63;99003.75;5033854;28;975;-60
2021/08/30 02:33:14;;;;;;;;;;;;;;;18.88;83.77;99008.84;5033831;28;838;-60
2021/08/30 02:35:42;;;;;;;;;;;;;;;18.90;83.76;99009.13;5033818;28;838;-60
2021/08/30 02:38:11;;;;;;;;;;;;;;;18.93;84.46;99013.78;5033715;28;905;-60
2021/08/30 02:40:38;;;;;;;;;;;;;;;18.92;84.47;99010.19;5032302;28;1446;-59
2021/08/30 02:43:05;;;;;;;;;;;;;;;18.91;84.81;99008.66;5033706;28;818;-60
2021/08/30 02:45:32;;;;;;;;;;;;;;;18.92;84.87;99015.03;5033798;28;1951;-61
2021/08/30 02:48:00;;;;;;;;;;;;;;;18.93;85.16;99005.41;5032282;28;1627;-60
2021/08/30 02:50:28;;;;;;;;;;;;;;;18.92;84.81;99006.63;5033569;28;897;-61
2021/08/30 02:52:57;;;;;;;;;;;;;;;18.90;84.69;99003.53;5032945;28;886;-61
2021/08/30 02:55:25;;;;;;;;;;;;;;;18.97;84.15;99000.38;5033759;28;874;-60
2021/08/30 02:57:50;;;;;;;;;;;;;;;18.96;84.33;99005.19;5033603;28;913;-61
2021/08/30 03:00:17;;;;;;;;;;;;;;;18.95;84.11;99005.69;5034365;28;834;-61
2021/08/30 03:02:46;;;;;;;;;;;;;;;18.93;84.33;99008.19;5033711;28;807;-61
2021/08/30 03:05:13;;;;;;;;;;;;;;;18.91;84.43;99007.91;5033503;28;1890;-60
2021/08/30 03:07:40;;;;;;;;;;;;;;;18.87;84.23;99019.28;5033338;28;799;-60
2021/08/30 03:10:07;;;;;;;;;;;;;;;18.88;84.32;99015.25;5033475;28;850;-61
2021/08/30 03:12:43;;;;;;;;;;;;;;;18.84;84.33;99020.25;5033295;28;883;-60
2021/08/30 03:15:14;;;;;;;;;;;;;;;18.81;83.99;99021.19;5032956;28;1024;-60
2021/08/30 03:17:42;;;;;;;;;;;;;;;18.87;84.03;99019.28;5032741;28;1418;-61
2021/08/30 03:20:10;;;;;;;;;;;;;;;18.84;83.98;99025.84;5032989;28;807;-60
2021/08/30 03:22:37;;;;;;;;;;;;;;;18.88;83.67;99023.63;5032727;28;946;-60
2021/08/30 03:25:05;;;;;;;;;;;;;;;18.89;83.84;99032.78;5032751;28;1918;-60
2021/08/30 03:27:32;;;;;;;;;;;;;;;18.88;83.53;99039.63;5032841;28;918;-60
2021/08/30 03:29:59;;;;;;;;;;;;;;;18.89;83.85;99046.81;5032691;28;814;-61
2021/08/30 03:32:26;;;;;;;;;;;;;;;18.86;83.89;99042.13;5032780;28;854;-61
2021/08/30 03:34:53;;;;;;;;;;;;;;;18.82;83.35;99047.13;5032631;28;795;-60
2021/08/30 03:37:20;;;;;;;;;;;;;;;18.79;83.60;99048.09;5032640;28;835;-60
2021/08/30 03:39:46;;;;;;;;;;;;;;;18.73;83.57;99050.75;5032554;28;855;-61
2021/08/30 03:42:12;;;;;;;;;;;;;;;18.69;83.46;99055.75;5032577;28;841;-61
2021/08/30 03:44:39;;;;;;;;;;;;;;;18.65;83.45;99063.56;5032434;28;1945;-61
2021/08/30 03:47:06;;;;;;;;;;;;;;;18.63;83.46;99061.25;5032386;28;961;-60
2021/08/30 03:49:33;;;;;;;;;;;;;;;18.60;83.18;99056.59;5032403;28;865;-61
2021/08/30 03:52:00;;;;;;;;;;;;;;;18.60;83.15;99069.81;5032331;28;869;-61
2021/08/30 03:54:27;;;;;;;;;;;;;;;18.60;82.95;99061.41;5032198;28;1237;-61
2021/08/30 03:56:54;;;;;;;;;;;;;;;18.60;82.80;99058.63;5032261;28;806;-61
2021/08/30 03:59:22;;;;;;;;;;;;;;;18.61;82.52;99071.38;5032235;28;839;-61
2021/08/30 04:01:52;;;;;;;;;;;;;;;18.57;82.33;99068.75;5032310;28;803;-60
2021/08/30 04:04:22;;;;;;;;;;;;;;;18.57;82.20;99068.75;5032037;28;1894;-61
2021/08/30 04:06:49;;;;;;;;;;;;;;;18.55;81.89;99079.63;5032247;28;822;-61
2021/08/30 04:09:20;;;;;;;;;;;;;;;18.53;81.54;99088.50;5032160;28;826;-60
2021/08/30 04:11:48;;;;;;;;;;;;;;;18.55;81.55;99069.22;5032005;28;839;-60
2021/08/30 04:14:15;;;;;;;;;;;;;;;18.55;81.40;99093.63;5030649;28;1413;-60
2021/08/30 04:16:42;;;;;;;;;;;;;;;18.56;81.28;99106.34;5031821;28;1182;-61
2021/08/30 04:19:09;;;;;;;;;;;;;;;18.52;81.01;99097.34;5031970;28;779;-62
2021/08/30 04:21:34;;;;;;;;;;;;;;;18.47;80.95;99087.59;5031928;28;862;-60
2021/08/30 04:24:01;;;;;;;;;;;;;;;18.44;80.99;99098.97;5031711;28;1985;-60
2021/08/30 04:26:28;;;;;;;;;;;;;;;18.42;81.04;99101.47;5031813;28;802;-61
2021/08/30 04:28:55;;;;;;;;;;;;;;;18.42;79.89;99096.66;5031778;28;845;-60
2021/08/30 04:31:22;;;;;;;;;;;;;;;18.43;79.77;99105.81;5031750;28;802;-61
2021/08/30 04:33:48;;;;;;;;;;;;;;;18.43;79.95;99100.97;5031813;28;810;-61
2021/08/30 04:36:14;;;;;;;;;;;;;;;18.43;79.45;99114.19;5031666;28;823;-61
2021/08/30 04:38:41;;;;;;;;;;;;;;;18.41;79.62;99100.69;5031816;28;834;-61
2021/08/30 04:41:08;;;;;;;;;;;;;;;18.43;78.87;99100.22;5031662;28;905;-61
2021/08/30 04:43:35;;;;;;;;;;;;;;;18.43;78.62;99097.41;5031607;28;884;-61
2021/08/30 04:46:02;;;;;;;;;;;;;;;18.43;78.77;99097.41;5031570;28;1949;-61
2021/08/30 04:48:29;;;;;;;;;;;;;;;18.45;78.26;99103.31;5031489;28;819;-61
2021/08/30 04:50:56;;;;;;;;;;;;;;;18.51;78.18;99102.19;5031621;28;838;-61
2021/08/30 04:53:22;;;;;;;;;;;;;;;18.63;77.40;99114.41;5031381;28;865;-61
2021/08/30 04:55:49;;;;;;;;;;;;;;;18.72;77.12;99108.00;5031690;28;791;-61
2021/08/30 04:58:16;;;;;;;;;;;;;;;18.80;77.05;99111.22;5031726;28;1014;-61
2021/08/30 05:00:42;;;;;;;;;;;;;;;18.86;76.80;99110.13;5031721;28;819;-60
2021/08/30 05:03:09;;;;;;;;;;;;;;;18.88;76.47;99107.63;5031721;28;823;-61
2021/08/30 05:05:36;;;;;;;;;;;;;;;18.88;76.08;99102.03;5031665;28;1907;-61
2021/08/30 05:08:02;;;;;;;;;;;;;;;18.86;75.71;99124.13;5031835;28;803;-61
2021/08/30 05:15:44;;;;;;;;;;;;;;;18.93;75.58;99118.16;5761889;22;1697;-62
2021/08/30 05:18:11;;;;;;;;;;;;;;;19.00;74.78;99110.66;5035300;28;826;-62
2021/08/30 05:20:36;;;;;;;;;;;;;;;19.13;74.78;99123.16;5035556;28;830;-62
2021/08/30 05:23:03;;;;;;;;;;;;;;;19.25;73.62;99129.75;5035221;28;925;-61
2021/08/30 05:25:30;;;;;;;;;;;;;;;19.34;73.01;99129.69;5035126;28;1906;-61
2021/08/30 05:27:56;;;;;;;;;;;;;;;19.36;72.69;99107.56;5035058;28;858;-61
2021/08/30 05:30:22;;;;;;;;;;;;;;;19.39;71.45;99131.03;5035098;28;814;-61
2021/08/30 05:32:49;;;;;;;;;;;;;;;19.47;71.51;99143.44;5035045;28;895;-61
2021/08/30 05:35:16;;;;;;;;;;;;;;;19.57;71.04;99144.16;5034991;28;888;-62
2021/08/30 05:37:42;;;;;;;;;;;;;;;19.69;71.15;99140.28;5034921;28;814;-61
2021/08/30 05:40:09;;;;;;;;;;;;;;;19.84;70.62;99131.91;5034888;28;888;-62
2021/08/30 05:42:35;;;;;;;;;;;;;;;19.98;68.95;99144.41;5034826;28;810;-62
2021/08/30 05:45:03;;;;;;;;;;;;;;;20.10;67.64;99134.13;5034666;28;1959;-60
2021/08/30 05:47:29;;;;;;;;;;;;;;;19.89;68.77;99131.25;5035023;28;814;-62
2021/08/30 05:49:56;;;;;;;;;;;;;;;19.71;70.32;99148.25;5034719;28;850;-61
2021/08/30 05:52:25;;;;;;;;;;;;;;;19.56;70.29;99151.00;5034707;28;823;-61
2021/08/30 05:54:51;;;;;;;;;;;;;;;19.38;70.69;99135.13;5034815;28;826;-61
2021/08/30 05:57:18;;;;;;;;;;;;;;;19.46;69.89;99157.91;5034566;28;798;-61
2021/08/30 05:59:45;;;;;;;;;;;;;;;19.97;67.27;99156.88;5034829;28;845;-62
2021/08/30 06:02:11;;;;;;;;;;;;;;;20.38;65.04;99145.84;5034445;28;865;-63
2021/08/30 06:04:37;;;;;;;;;;;;;;;20.35;64.84;99169.25;5034355;28;1952;-61
2021/08/30 06:07:04;;;;;;;;;;;;;;;20.63;65.25;99149.28;5034440;28;1001;-61
2021/08/30 06:09:30;;;;;;;;;;;;;;;21.30;61.39;99158.66;5034311;28;847;-62
2021/08/30 06:11:57;;;;;;;;;;;;;;;21.59;61.54;99162.56;5034338;28;861;-62
2021/08/30 06:14:24;;;;;;;;;;;;;;;21.26;61.83;99157.31;5034156;28;822;-62
2021/08/30 06:16:50;;;;;;;;;;;;;;;21.59;60.85;99151.31;5034023;28;1307;-61
2021/08/30 06:19:17;;;;;;;;;;;;;;;22.48;57.72;99155.50;5034171;28;873;-62
2021/08/30 06:21:44;;;;;;;;;;;;;;;22.85;55.85;99169.56;5034162;28;830;-61
2021/08/30 06:24:10;;;;;;;;;;;;;;;22.77;55.60;99148.81;5033980;28;2261;-62
2021/08/30 06:26:37;;;;;;;;;;;;;;;22.43;56.93;99157.00;5033027;28;858;-61
2021/08/30 06:29:04;;;;;;;;;;;;;;;21.60;59.18;99164.13;5034219;28;842;-61
2021/08/30 06:31:31;;;;;;;;;;;;;;;21.24;60.39;99174.66;5034071;28;912;-61
2021/08/30 06:33:57;;;;;;;;;;;;;;;20.93;61.00;99181.66;5034030;28;811;-61
2021/08/30 06:36:24;;;;;;;;;;;;;;;20.80;61.62;99172.78;5034134;28;870;-61
2021/08/30 06:38:51;;;;;;;;;;;;;;;20.59;63.32;99183.97;5034282;28;834;-61
2021/08/30 06:41:17;;;;;;;;;;;;;;;20.51;63.65;99176.41;5032983;28;1291;-61
2021/08/30 06:43:44;;;;;;;;;;;;;;;20.56;62.79;99176.47;5033974;28;1949;-61
2021/08/30 06:46:10;;;;;;;;;;;;;;;20.94;61.21;99183.19;5034322;28;814;-60
2021/08/30 06:48:37;;;;;;;;;;;;;;;21.44;60.50;99190.00;5033867;28;814;-61
2021/08/30 06:51:04;;;;;;;;;;;;;;;22.44;57.98;99178.25;5033541;28;921;-60
2021/08/30 06:53:30;;;;;;;;;;;;;;;22.69;58.92;99176.66;5033478;28;857;-61
2021/08/30 06:55:57;;;;;;;;;;;;;;;22.33;57.36;99178.16;5033560;28;885;-61
2021/08/30 06:58:24;;;;;;;;;;;;;;;22.45;58.77;99188.25;5033573;28;873;-61
2021/08/30 07:00:50;;;;;;;;;;;;;;;22.62;55.72;99194.78;5033359;28;865;-62
2021/08/30 07:03:17;;;;;;;;;;;;;;;22.43;57.12;99199.25;5033349;28;818;-61
2021/08/30 07:05:44;;;;;;;;;;;;;;;21.98;58.98;99188.31;5033203;28;1885;-62
2021/08/30 07:08:10;;;;;;;;;;;;;;;21.85;59.13;99195.56;5033301;28;1017;-61
2021/08/30 07:10:37;;;;;;;;;;;;;;;21.85;59.19;99204.81;5031931;28;1223;-61
2021/08/30 07:13:03;;;;;;;;;;;;;;;21.79;58.27;99196.28;5033201;28;837;-61
2021/08/30 07:15:29;;;;;;;;;;;;;;;21.64;58.89;99204.06;5033442;28;957;-61
2021/08/30 07:17:55;;;;;;;;;;;;;;;21.52;60.19;99200.31;5032937;28;1355;-61
2021/08/30 07:20:22;;;;;;;;;;;;;;;21.72;58.47;99207.19;5033124;28;901;-61
2021/08/30 07:22:49;;;;;;;;;;;;;;;21.86;58.63;99208.38;5032879;28;866;-61
2021/08/30 07:25:16;;;;;;;;;;;;;;;21.90;57.91;99203.31;5032906;28;1917;-61
2021/08/30 07:27:43;;;;;;;;;;;;;;;21.76;59.03;99210.56;5031521;28;1298;-61
2021/08/30 07:30:09;;;;;;;;;;;;;;;21.68;59.18;99204.63;5033133;28;849;-61
2021/08/30 07:32:36;;;;;;;;;;;;;;;21.76;61.07;99202.13;5032745;28;880;-61
2021/08/30 07:35:02;;;;;;;;;;;;;;;21.86;58.88;99194.31;5032862;28;877;-61
2021/08/30 07:37:29;;;;;;;;;;;;;;;21.86;59.41;99202.75;5032399;28;795;-62
2021/08/30 07:39:55;;;;;;;;;;;;;;;22.41;57.68;99207.41;5031313;28;1363;-61
2021/08/30 07:42:22;;;;;;;;;;;;;;;22.86;56.42;99207.00;5032901;28;883;-62
2021/08/30 07:44:49;;;;;;;;;;;;;;;22.80;55.89;99204.88;5032373;28;1889;-62
2021/08/30 07:47:14;;;;;;;;;;;;;;;22.53;57.82;99214.69;5032489;28;822;-62
2021/08/30 07:49:41;;;;;;;;;;;;;;;22.39;56.94;99218.41;5032445;28;858;-61
2021/08/30 07:52:07;;;;;;;;;;;;;;;22.40;57.64;99214.31;5032341;28;874;-61
2021/08/30 07:54:34;;;;;;;;;;;;;;;22.59;58.06;99215.47;5032319;28;1028;-61
2021/08/30 07:57:01;;;;;;;;;;;;;;;23.21;54.58;99217.97;5032336;28;885;-62
2021/08/30 07:59:27;;;;;;;;;;;;;;;23.39;54.57;99214.75;5032229;28;861;-62
2021/08/30 08:01:54;;;;;;;;;;;;;;;23.37;54.58;99214.47;5032391;28;811;-61
2021/08/30 08:04:20;;;;;;;;;;;;;;;23.23;55.14;99221.06;5032013;28;1966;-62
2021/08/30 08:06:47;;;;;;;;;;;;;;;23.79;53.50;99210.06;5032159;28;814;-62
2021/08/30 08:09:14;;;;;;;;;;;;;;;24.07;52.79;99222.69;5032168;28;814;-62
2021/08/30 08:11:40;;;;;;;;;;;;;;;23.74;53.63;99227.69;5032092;28;872;-61
2021/08/30 08:14:07;;;;;;;;;;;;;;;23.40;53.61;99238.06;5032013;28;842;-61
2021/08/30 08:16:33;;;;;;;;;;;;;;;23.05;53.52;99229.94;5031651;28;1357;-61
2021/08/30 08:19:03;;;;;;;;;;;;;;;22.56;55.56;99233.41;5031956;28;825;-62
2021/08/30 08:21:30;;;;;;;;;;;;;;;22.28;55.40;99229.56;5031984;28;885;-60
2021/08/30 08:23:56;;;;;;;;;;;;;;;22.10;57.13;99239.06;5031789;28;1983;-62
2021/08/30 08:26:22;;;;;;;;;;;;;;;22.15;56.78;99239.13;5031861;28;873;-61
2021/08/30 08:28:48;;;;;;;;;;;;;;;22.50;55.54;99232.56;5031838;28;898;-61
2021/08/30 08:31:14;;;;;;;;;;;;;;;22.79;56.03;99239.22;5030507;28;1202;-61
2021/08/30 08:33:44;;;;;;;;;;;;;;;22.81;56.13;99251.53;5031815;28;811;-62
2021/08/30 08:36:11;;;;;;;;;;;;;;;22.68;55.21;99256.00;5031669;28;873;-62
2021/08/30 08:38:37;;;;;;;;;;;;;;;22.47;55.17;99255.31;5031746;28;818;-61
2021/08/30 08:41:04;;;;;;;;;;;;;;;22.60;55.82;99247.25;5031709;28;886;-61
2021/08/30 08:43:31;;;;;;;;;;;;;;;22.96;54.01;99245.75;5031586;28;842;-60
2021/08/30 08:45:57;;;;;;;;;;;;;;;23.88;52.53;99245.75;5031538;28;2005;-62
2021/08/30 08:48:24;;;;;;;;;;;;;;;24.23;49.54;99255.81;5031943;28;822;-62
2021/08/30 08:50:51;;;;;;;;;;;;;;;24.08;51.03;99249.66;5030898;28;806;-61
2021/08/30 08:53:18;;;;;;;;;;;;;;;24.45;49.38;99253.06;5031514;28;846;-62
2021/08/30 08:55:44;;;;;;;;;;;;;;;24.88;48.10;99262.56;5031501;28;894;-62
2021/08/30 08:58:12;;;;;;;;;;;;;;;25.18;49.41;99249.44;5031695;28;854;-62
2021/08/30 09:00:43;;;;;;;;;;;;;;;25.29;46.64;99257.16;5030211;28;1290;-62
2021/08/30 09:03:17;;;;;;;;;;;;;;;25.41;46.64;99272.81;5031555;28;798;-62
2021/08/30 09:05:43;;;;;;;;;;;;;;;25.40;47.37;99257.09;5031392;28;1951;-63
2021/08/30 09:08:35;;;;;;;;;;;;;;;25.54;46.92;99277.13;5031284;28;865;-62
2021/08/30 09:11:01;;;;;;;;;;;;;;;25.90;46.69;99271.63;5028600;28;1222;-62
2021/08/30 09:13:31;;;;;;;;;;;;;;;25.81;45.85;99270.59;5031266;28;814;-63
2021/08/30 09:15:58;;;;;;;;;;;;;;;25.55;48.99;99261.69;5031335;28;1360;-62
2021/08/30 09:18:29;;;;;;;;;;;;;;;25.39;47.87;99268.94;5031236;28;960;-61
2021/08/30 09:20:57;;;;;;;;;;;;;;;25.40;47.39;99270.50;5031244;28;854;-62
2021/08/30 09:23:27;;;;;;;;;;;;;;;25.38;48.40;99273.81;5031334;28;857;-62
2021/08/30 09:26:03;;;;;;;;;;;;;;;24.71;47.12;99277.50;5031205;28;1914;-62
2021/08/30 09:28:30;;;;;;;;;;;;;;;23.95;49.05;99272.69;5031259;28;838;-62
2021/08/30 09:30:58;;;;;;;;;;;;;;;23.89;51.16;99275.50;5029885;28;1187;-61
2021/08/30 09:33:24;;;;;;;;;;;;;;;23.97;49.56;99285.03;5031237;28;874;-62
2021/08/30 09:36:00;;;;;;;;;;;;;;;24.16;49.67;99279.69;5031153;28;814;-63
2021/08/30 09:38:30;;;;;;;;;;;;;;;24.38;49.88;99281.00;5031194;28;814;-61
2021/08/30 09:41:07;;;;;;;;;;;;;;;24.89;47.17;99287.50;5030930;28;823;-64
2021/08/30 09:43:34;;;;;;;;;;;;;;;25.09;47.42;99294.94;5031093;28;822;-62
2021/08/30 09:46:01;;;;;;;;;;;;;;;25.11;47.78;99285.94;5031019;28;1882;-62
2021/08/30 09:48:28;;;;;;;;;;;;;;;24.95;47.63;99291.09;5030995;28;836;-62
2021/08/30 09:50:59;;;;;;;;;;;;;;;24.86;48.54;99277.22;5031080;28;818;-62
2021/08/30 09:53:26;;;;;;;;;;;;;;;24.60;48.28;99292.38;5030989;28;850;-62
2021/08/30 09:55:52;;;;;;;;;;;;;;;24.51;47.93;99297.50;5031733;28;846;-61
2021/08/30 09:58:19;;;;;;;;;;;;;;;24.55;48.79;99289.53;5030893;28;898;-61
2021/08/30 10:00:46;;;;;;;;;;;;;;;24.69;49.80;99296.22;5031446;28;1025;-62
2021/08/30 10:03:14;;;;;;;;;;;;;;;24.86;48.22;99291.38;5034496;28;870;-61
2021/08/30 10:05:41;;;;;;;;;;;;;;;24.98;48.70;99298.53;5034897;28;1878;-62
2021/08/30 10:08:08;;;;;;;;;;;;;;;24.89;46.82;99293.16;5034388;28;858;-61
2021/08/30 10:10:35;;;;;;;;;;;;;;;24.89;47.62;99300.88;5034788;28;767;-62
2021/08/30 10:13:01;;;;;;;;;;;;;;;25.11;49.71;99291.59;5034629;28;885;-62
2021/08/30 10:15:28;;;;;;;;;;;;;;;25.35;46.21;99293.88;5034364;28;922;-62
2021/08/30 10:17:55;;;;;;;;;;;;;;;25.49;45.38;99289.25;5033904;28;1244;-62
2021/08/30 10:20:26;;;;;;;;;;;;;;;25.67;45.99;99286.59;5034484;28;921;-62
2021/08/30 10:22:59;;;;;;;;;;;;;;;25.85;44.04;99298.63;5032847;28;1212;-62
2021/08/30 10:25:26;;;;;;;;;;;;;;;26.25;44.16;99297.16;5033958;28;2031;-62
2021/08/30 10:27:54;;;;;;;;;;;;;;;26.22;43.03;99292.56;5032882;28;794;-62
2021/08/30 10:30:21;;;;;;;;;;;;;;;26.47;45.43;99292.66;5034011;28;918;-64
2021/08/30 10:32:52;;;;;;;;;;;;;;;26.60;44.11;99298.50;5033912;28;846;-62
2021/08/30 10:35:20;;;;;;;;;;;;;;;26.36;42.48;99295.56;5033898;28;830;-62
2021/08/30 10:37:50;;;;;;;;;;;;;;;26.18;42.69;99294.13;5033845;28;865;-63
2021/08/30 10:40:17;;;;;;;;;;;;;;;25.97;42.21;99303.00;5033832;28;869;-62
2021/08/30 10:42:44;;;;;;;;;;;;;;;26.28;43.66;99303.84;5033783;28;815;-64
2021/08/30 10:45:11;;;;;;;;;;;;;;;26.76;39.67;99304.59;5033641;28;1890;-63
2021/08/30 10:47:38;;;;;;;;;;;;;;;26.75;38.30;99303.06;5033618;28;886;-62
2021/08/30 10:50:22;;;;;;;;;;;;;;;26.29;39.06;99296.91;5033606;28;810;-64
2021/08/30 10:56:07;;;;;;;;;;;;;;;26.42;44.02;99296.31;5033526;28;696;-62
2021/08/30 10:58:34;;;;;;;;;;;;;;;26.87;39.74;99299.59;5033617;28;931;-63
2021/08/30 11:01:10;;;;;;;;;;;;;;;27.62;39.34;99301.22;5033651;28;806;-63
2021/08/30 11:03:37;;;;;;;;;;;;;;;28.10;39.20;99307.34;5033388;28;853;-64
2021/08/30 11:06:03;;;;;;;;;;;;;;;28.25;38.19;99302.00;5033255;28;1902;-63
2021/08/30 11:08:30;;;;;;;;;;;;;;;28.23;37.54;99293.25;5033357;28;861;-63
2021/08/30 11:11:16;;;;;;;;;;;;;;;28.23;38.35;99301.78;5033046;28;847;-63
2021/08/30 11:13:55;;;;;;;;;;;;;;;28.12;37.44;99304.75;5032638;28;1143;-63
2021/08/30 11:16:22;;;;;;;;;;;;;;;27.76;39.23;99296.41;5033064;28;1375;-63
2021/08/30 11:18:50;;;;;;;;;;;;;;;27.36;38.32;99313.09;5033067;28;807;-63
2021/08/30 11:21:16;;;;;;;;;;;;;;;27.05;38.47;99295.31;5033048;28;822;-65
2021/08/30 11:23:43;;;;;;;;;;;;;;;27.15;39.16;99298.56;5032860;28;814;-63
2021/08/30 11:26:08;;;;;;;;;;;;;;;27.10;39.50;99296.56;5032863;28;1910;-63
2021/08/30 11:28:35;;;;;;;;;;;;;;;27.21;39.54;99290.03;5032803;28;889;-63
2021/08/30 11:31:03;;;;;;;;;;;;;;;27.32;39.18;99298.44;5032747;28;1148;-63
2021/08/30 11:33:30;;;;;;;;;;;;;;;27.41;40.54;99292.41;5032781;28;872;-62
2021/08/30 11:36:00;;;;;;;;;;;;;;;27.64;39.43;99284.41;5032718;28;895;-64
2021/08/30 11:38:26;;;;;;;;;;;;;;;27.85;39.76;99281.88;5033154;28;815;-63
2021/08/30 11:40:53;;;;;;;;;;;;;;;27.76;38.77;99289.94;5032697;28;830;-63
2021/08/30 11:43:20;;;;;;;;;;;;;;;27.63;37.84;99293.47;5033044;28;798;-64
2021/08/30 11:45:46;;;;;;;;;;;;;;;27.48;38.92;99282.53;5031139;28;1914;-63
2021/08/30 11:48:14;;;;;;;;;;;;;;;27.21;37.90;99278.69;5032569;28;811;-63
2021/08/30 11:50:41;;;;;;;;;;;;;;;27.31;39.52;99276.28;5032482;28;878;-63
2021/08/30 11:53:11;;;;;;;;;;;;;;;27.48;38.19;99260.63;5032718;28;846;-63
2021/08/30 11:55:38;;;;;;;;;;;;;;;27.36;37.83;99276.22;5032278;28;815;-62
2021/08/30 11:58:04;;;;;;;;;;;;;;;27.27;39.09;99268.84;5032359;28;858;-64
2021/08/30 12:00:30;;;;;;;;;;;;;;;27.42;38.15;99268.41;5032442;28;811;-63
2021/08/30 12:02:59;;;;;;;;;;;;;;;27.65;39.12;99268.94;5032507;28;909;-63
2021/08/30 12:05:27;;;;;;;;;;;;;;;28.02;39.47;99261.00;5032142;28;1886;-62
2021/08/30 12:07:53;;;;;;;;;;;;;;;28.54;37.71;99261.81;5032163;28;839;-64
2021/08/30 12:10:21;;;;;;;;;;;;;;;28.38;37.08;99272.09;5032064;28;865;-64
2021/08/30 12:12:56;;;;;;;;;;;;;;;28.27;37.53;99267.34;5032027;28;900;-63
2021/08/30 12:15:25;;;;;;;;;;;;;;;28.10;38.29;99262.69;5032103;28;1120;-63
2021/08/30 12:17:55;;;;;;;;;;;;;;;28.18;37.32;99254.31;5031826;28;1264;-64
2021/08/30 12:20:23;;;;;;;;;;;;;;;28.07;36.64;99263.00;5031885;28;912;-63
2021/08/30 12:22:59;;;;;;;;;;;;;;;28.09;37.81;99257.53;5031939;28;810;-63
2021/08/30 12:25:27;;;;;;;;;;;;;;;28.04;37.50;99262.00;5030885;28;1995;-63
2021/08/30 12:27:55;;;;;;;;;;;;;;;28.14;37.29;99258.78;5032121;28;839;-63
2021/08/30 12:30:25;;;;;;;;;;;;;;;28.10;36.84;99259.84;5031787;28;798;-63
2021/08/30 12:32:55;;;;;;;;;;;;;;;28.15;36.76;99263.91;5031791;28;823;-64
2021/08/30 12:35:26;;;;;;;;;;;;;;;28.00;36.60;99270.06;5031673;28;842;-64
2021/08/30 12:38:01;;;;;;;;;;;;;;;28.38;38.10;99257.88;5031679;28;877;-63
2021/08/30 12:40:28;;;;;;;;;;;;;;;28.67;36.69;99264.69;5031689;28;786;-63
2021/08/30 12:42:55;;;;;;;;;;;;;;;28.41;37.95;99265.34;5031664;28;850;-64
2021/08/30 12:45:22;;;;;;;;;;;;;;;28.89;36.63;99264.34;5031670;28;1890;-63
2021/08/30 12:47:49;;;;;;;;;;;;;;;29.31;36.75;99266.72;5031594;28;905;-63
2021/08/30 12:50:15;;;;;;;;;;;;;;;29.50;35.13;99255.97;5031733;28;838;-64
2021/08/30 12:52:42;;;;;;;;;;;;;;;29.00;35.04;99271.91;5031633;28;826;-64
2021/08/30 12:55:10;;;;;;;;;;;;;;;28.89;36.28;99274.94;5030362;28;844;-63
2021/08/30 12:57:37;;;;;;;;;;;;;;;29.24;37.72;99273.06;5031441;28;905;-63
2021/08/30 13:00:10;;;;;;;;;;;;;;;29.68;35.89;99268.56;5031546;28;881;-63
2021/08/30 13:02:41;;;;;;;;;;;;;;;29.69;34.82;99270.13;5031460;28;854;-64
2021/08/30 13:05:09;;;;;;;;;;;;;;;29.35;36.17;99272.84;5031336;28;1886;-63
2021/08/30 13:07:36;;;;;;;;;;;;;;;29.53;35.95;99276.88;5031363;28;931;-64
2021/08/30 13:10:03;;;;;;;;;;;;;;;29.43;34.81;99285.09;5031327;28;886;-64
2021/08/30 13:12:29;;;;;;;;;;;;;;;29.31;36.02;99280.94;5031395;28;814;-64
2021/08/30 13:14:56;;;;;;;;;;;;;;;29.22;36.01;99292.75;5031299;28;1048;-63
2021/08/30 13:17:22;;;;;;;;;;;;;;;29.66;36.79;99291.13;5029839;28;1396;-63
2021/08/30 13:19:49;;;;;;;;;;;;;;;29.64;34.98;99288.06;5031298;28;838;-63